createdAt,value
2017-07-02T00:02:07.820Z,77.40
2017-07-02T00:04:36.604Z,77.42
2017-07-02T00:07:04.940Z,77.19
2017-07-02T00:09:33.292Z,76.71
2017-07-02T00:12:01.908Z,76.20
2017-07-02T00:14:30.249Z,75.68
2017-07-02T00:16:58.582Z,75.91
2017-07-02T00:19:27.683Z,75.63
2017-07-02T00:21:56.018Z,75.71
2017-07-02T00:24:24.366Z,75.15
2017-07-02T00:26:53.023Z,75.32
2017-07-02T00:29:22.130Z,75.30
2017-07-02T00:31:50.506Z,75.93
2017-07-02T00:34:19.158Z,75.18
2017-07-02T00:36:47.489Z,75.09
2017-07-02T00:39:15.832Z,74.91
2017-07-02T00:41:44.839Z,74.98
2017-07-02T00:44:13.187Z,74.97
2017-07-02T00:46:41.530Z,74.98
2017-07-02T00:49:10.174Z,75.32
2017-07-02T00:51:39.316Z,74.58
2017-07-02T00:54:07.667Z,74.57
2017-07-02T00:56:36.297Z,74.49
2017-07-02T00:59:04.633Z,74.51
2017-07-02T01:01:32.977Z,73.76
2017-07-02T01:04:02.053Z,74.41
2017-07-02T01:06:30.393Z,74.31
2017-07-02T01:08:58.743Z,74.87
2017-07-02T01:11:27.406Z,75.07
2017-07-02T01:13:55.732Z,75.16
2017-07-02T01:16:24.067Z,75.04
2017-07-02T01:18:52.880Z,74.39
2017-07-02T01:21:21.218Z,74.13
2017-07-02T01:23:49.559Z,73.81
2017-07-02T01:26:18.367Z,73.83
2017-07-02T01:28:46.700Z,73.84
2017-07-02T01:31:15.823Z,73.90
2017-07-02T01:33:44.459Z,74.29
2017-07-02T01:36:12.788Z,74.22
2017-07-02T01:38:41.133Z,74.57
2017-07-02T01:41:10.073Z,74.67
2017-07-02T01:43:38.416Z,74.77
2017-07-02T01:46:07.545Z,74.54
2017-07-02T01:48:36.369Z,74.24
2017-07-02T01:51:04.723Z,74.14
2017-07-02T01:53:33.058Z,73.78
2017-07-02T01:56:01.708Z,73.81
2017-07-02T01:58:30.060Z,74.03
2017-07-02T02:01:16.466Z,73.84
2017-07-02T02:03:44.794Z,74.43
2017-07-02T02:06:13.156Z,74.80
2017-07-02T02:08:41.975Z,75.25
2017-07-02T02:11:10.316Z,75.88
2017-07-02T02:13:38.666Z,76.16
2017-07-02T02:16:07.322Z,75.77
2017-07-02T02:18:35.690Z,75.87
2017-07-02T02:21:04.053Z,75.93
2017-07-02T02:23:32.725Z,76.04
2017-07-02T02:26:01.139Z,76.84
2017-07-02T02:28:29.500Z,76.33
2017-07-02T02:30:58.312Z,76.46
2017-07-02T02:33:26.673Z,76.66
2017-07-02T02:35:55.801Z,76.45
2017-07-02T02:38:24.435Z,76.07
2017-07-02T02:40:52.773Z,75.93
2017-07-02T02:43:21.136Z,76.42
2017-07-02T02:45:50.036Z,76.91
2017-07-02T02:48:18.365Z,76.93
2017-07-02T02:50:46.711Z,76.41
2017-07-02T02:53:15.532Z,76.15
2017-07-02T02:55:43.867Z,76.48
2017-07-02T02:58:12.217Z,76.38
2017-07-02T03:00:40.977Z,76.42
2017-07-02T03:03:09.305Z,77.05
2017-07-02T03:05:37.650Z,76.37
2017-07-02T03:08:06.295Z,76.55
2017-07-02T03:10:34.632Z,76.03
2017-07-02T03:13:02.998Z,76.21
2017-07-02T03:15:32.478Z,75.69
2017-07-02T03:18:00.842Z,76.62
2017-07-02T03:20:29.210Z,77.27
2017-07-02T03:22:58.055Z,77.15
2017-07-02T03:25:26.408Z,76.93
2017-07-02T03:27:54.754Z,77.14
2017-07-02T03:30:23.494Z,76.89
2017-07-02T03:32:51.825Z,77.33
2017-07-02T03:35:20.158Z,77.26
2017-07-02T03:37:49.692Z,76.78
2017-07-02T03:40:18.026Z,76.85
2017-07-02T03:42:46.400Z,76.57
2017-07-02T03:45:15.244Z,76.49
2017-07-02T03:47:43.574Z,76.17
2017-07-02T03:50:11.947Z,75.78
2017-07-02T03:52:40.849Z,76.06
2017-07-02T03:55:09.176Z,75.82
2017-07-02T03:57:37.501Z,76.09
2017-07-02T04:00:07.380Z,76.21
2017-07-02T04:02:35.799Z,75.93
2017-07-02T04:05:04.144Z,75.60
2017-07-02T04:07:32.772Z,75.61
2017-07-02T04:10:01.113Z,75.67
2017-07-02T04:12:29.451Z,75.98
2017-07-02T04:14:58.090Z,76.56
2017-07-02T04:17:26.441Z,76.33
2017-07-02T04:19:54.798Z,75.88
2017-07-02T04:22:23.677Z,75.35
2017-07-02T04:24:52.019Z,75.71
2017-07-02T04:27:20.381Z,75.42
2017-07-02T04:29:49.125Z,75.70
2017-07-02T04:32:17.476Z,76.14
2017-07-02T04:34:45.822Z,75.67
2017-07-02T04:37:14.569Z,74.48
2017-07-02T04:39:42.912Z,74.34
2017-07-02T04:42:11.277Z,74.15
2017-07-02T04:44:40.199Z,75.01
2017-07-02T04:47:08.531Z,74.59
2017-07-02T04:49:36.867Z,74.59
2017-07-02T04:52:06.293Z,74.11
2017-07-02T04:54:35.492Z,73.83
2017-07-02T04:57:03.825Z,73.81
2017-07-02T04:59:32.498Z,73.89
2017-07-02T05:02:00.835Z,74.38
2017-07-02T05:04:29.175Z,74.89
2017-07-02T05:06:58.695Z,74.56
2017-07-02T05:09:27.814Z,73.96
2017-07-02T05:11:56.145Z,74.01
2017-07-02T05:14:24.770Z,75.12
2017-07-02T05:16:53.103Z,75.03
2017-07-02T05:19:21.483Z,74.28
2017-07-02T05:21:50.306Z,74.31
2017-07-02T05:24:18.643Z,74.29
2017-07-02T05:26:46.972Z,74.25
2017-07-02T05:29:16.090Z,73.86
2017-07-02T05:31:44.462Z,74.32
2017-07-02T05:34:12.796Z,73.57
2017-07-02T05:36:41.423Z,72.43
2017-07-02T05:39:09.757Z,71.45
2017-07-02T05:41:38.104Z,70.49
2017-07-02T05:44:06.775Z,70.56
2017-07-02T05:46:35.106Z,69.15
2017-07-02T05:49:03.460Z,68.20
2017-07-02T05:51:32.511Z,68.62
2017-07-02T05:54:00.846Z,67.87
2017-07-02T05:56:29.195Z,68.08
2017-07-02T05:58:58.364Z,69.08
2017-07-02T06:01:26.709Z,68.75
2017-07-02T06:03:55.805Z,69.84
2017-07-02T06:06:24.409Z,69.17
2017-07-02T06:08:52.775Z,68.90
2017-07-02T06:11:21.878Z,69.08
2017-07-02T06:13:51.092Z,68.41
2017-07-02T06:16:19.438Z,67.83
2017-07-02T06:18:47.770Z,67.61
2017-07-02T06:21:16.395Z,67.56
2017-07-02T06:23:44.713Z,68.75
2017-07-02T06:26:13.051Z,68.01
2017-07-02T06:28:41.764Z,67.45
2017-07-02T06:31:10.109Z,68.54
2017-07-02T06:33:38.453Z,69.00
2017-07-02T06:36:07.134Z,68.79
2017-07-02T06:38:35.501Z,69.29
2017-07-02T06:41:03.838Z,68.43
2017-07-02T06:43:32.452Z,67.73
2017-07-02T06:46:00.822Z,66.50
2017-07-02T06:48:29.181Z,65.57
2017-07-02T06:50:57.873Z,65.58
2017-07-02T06:53:26.231Z,66.79
2017-07-02T06:55:54.578Z,66.05
2017-07-02T06:58:23.329Z,66.53
2017-07-02T07:00:52.133Z,67.14
2017-07-02T07:03:20.488Z,65.91
2017-07-02T07:05:49.129Z,66.00
2017-07-02T07:08:17.470Z,66.53
2017-07-02T07:10:45.818Z,66.19
2017-07-02T07:13:14.639Z,66.82
2017-07-02T07:15:42.974Z,68.03
2017-07-02T07:18:11.324Z,69.29
2017-07-02T07:20:40.216Z,68.50
2017-07-02T07:23:08.563Z,68.52
2017-07-02T07:25:36.913Z,69.13
2017-07-02T07:28:05.585Z,69.68
2017-07-02T07:30:33.910Z,70.06
2017-07-02T07:33:03.030Z,70.53
2017-07-02T07:35:31.660Z,69.69
2017-07-02T07:37:59.991Z,69.53
2017-07-02T07:40:28.331Z,68.39
2017-07-02T07:42:57.405Z,68.30
2017-07-02T07:45:25.765Z,67.76
2017-07-02T07:47:54.097Z,67.83
2017-07-02T07:50:23.717Z,67.48
2017-07-02T07:52:52.061Z,68.12
2017-07-02T07:55:20.398Z,68.14
2017-07-02T07:57:49.142Z,67.62
2017-07-02T08:00:17.489Z,68.94
2017-07-02T08:02:45.993Z,67.93
2017-07-02T08:05:14.813Z,67.65
2017-07-02T08:07:43.326Z,67.18
2017-07-02T08:10:11.679Z,66.95
2017-07-02T08:12:40.440Z,67.97
2017-07-02T08:15:08.786Z,66.71
2017-07-02T08:17:37.153Z,66.70
2017-07-02T08:20:05.886Z,66.50
2017-07-02T08:22:34.232Z,66.89
2017-07-02T08:25:02.565Z,67.08
2017-07-02T08:27:31.516Z,66.57
2017-07-02T08:29:59.844Z,66.79
2017-07-02T08:32:28.179Z,66.92
2017-07-02T08:34:56.776Z,65.77
2017-07-02T08:37:25.118Z,68.47
2017-07-02T08:39:53.457Z,68.71
2017-07-02T08:42:22.121Z,68.85
2017-07-02T08:44:51.243Z,68.72
2017-07-02T08:47:19.577Z,69.03
2017-07-02T08:49:48.502Z,69.54
2017-07-02T08:52:16.828Z,70.04
2017-07-02T08:54:45.163Z,70.38
2017-07-02T08:57:13.782Z,70.90
2017-07-02T08:59:42.100Z,70.29
2017-07-02T09:02:10.451Z,68.81
2017-07-02T09:04:39.093Z,68.78
2017-07-02T09:07:07.431Z,68.29
2017-07-02T09:09:35.754Z,68.06
2017-07-02T09:12:04.618Z,68.09
2017-07-02T09:14:32.962Z,67.95
2017-07-02T09:17:01.293Z,68.62
2017-07-02T09:19:29.924Z,67.54
2017-07-02T09:21:58.256Z,68.20
2017-07-02T09:24:26.576Z,68.01
2017-07-02T09:26:55.324Z,68.28
2017-07-02T09:29:23.653Z,68.26
2017-07-02T09:31:51.979Z,67.67
2017-07-02T09:34:20.852Z,68.07
2017-07-02T09:36:49.975Z,68.73
2017-07-02T09:39:18.297Z,69.59
2017-07-02T09:41:46.971Z,69.53
2017-07-02T09:44:15.335Z,70.87
2017-07-02T09:46:43.727Z,70.90
2017-07-02T09:49:12.491Z,70.86
2017-07-02T09:51:40.824Z,71.14
2017-07-02T09:54:09.180Z,72.21
2017-07-02T09:56:38.053Z,73.66
2017-07-02T09:59:06.452Z,72.87
2017-07-02T10:01:34.776Z,72.18
2017-07-02T10:04:03.410Z,73.53
2017-07-02T10:06:31.748Z,74.15
2017-07-02T10:09:00.098Z,74.46
2017-07-02T10:11:28.918Z,74.41
2017-07-02T10:13:57.260Z,75.75
2017-07-02T10:16:25.607Z,77.52
2017-07-02T10:18:54.661Z,77.22
2017-07-02T10:21:23.002Z,77.12
2017-07-02T10:23:51.351Z,76.55
2017-07-02T10:26:20.042Z,76.20
2017-07-02T10:28:48.375Z,76.64
2017-07-02T10:31:16.689Z,76.81
2017-07-02T10:33:45.540Z,76.75
2017-07-02T10:36:13.903Z,77.00
2017-07-02T10:38:42.259Z,76.53
2017-07-02T10:41:11.398Z,75.66
2017-07-02T10:43:39.754Z,75.73
2017-07-02T10:46:08.104Z,74.58
2017-07-02T10:48:36.720Z,74.50
2017-07-02T10:51:05.072Z,75.50
2017-07-02T10:53:33.406Z,75.60
2017-07-02T10:56:02.300Z,76.03
2017-07-02T10:58:30.657Z,75.82
2017-07-02T11:00:59.005Z,75.44
2017-07-02T11:03:28.194Z,75.58
2017-07-02T11:05:56.562Z,74.81
2017-07-02T11:08:24.914Z,74.60
2017-07-02T11:10:53.776Z,74.37
2017-07-02T11:13:22.136Z,74.51
2017-07-02T11:15:50.539Z,73.89
2017-07-02T11:18:19.167Z,73.17
2017-07-02T11:20:47.502Z,73.04
2017-07-02T11:23:15.845Z,73.25
2017-07-02T11:25:44.690Z,73.52
2017-07-02T11:28:13.022Z,72.19
2017-07-02T11:30:41.392Z,71.58
2017-07-02T11:33:10.048Z,72.49
2017-07-02T11:35:38.415Z,72.86
2017-07-02T11:38:06.761Z,71.97
2017-07-02T11:40:36.397Z,73.34
2017-07-02T11:43:04.742Z,73.56
2017-07-02T11:45:33.086Z,71.63
2017-07-02T11:48:02.020Z,70.40
2017-07-02T11:50:30.353Z,69.83
2017-07-02T11:52:58.686Z,69.64
2017-07-02T11:55:28.047Z,69.26
2017-07-02T11:57:56.390Z,69.26
2017-07-02T12:00:24.735Z,68.49
2017-07-02T12:02:53.364Z,68.80
2017-07-02T12:05:21.707Z,68.20
2017-07-02T12:07:50.868Z,68.45
2017-07-02T12:10:19.952Z,69.54
2017-07-02T12:12:48.312Z,70.01
2017-07-02T12:15:16.659Z,70.68
2017-07-02T12:17:46.031Z,70.84
2017-07-02T12:20:14.358Z,70.67
2017-07-02T12:22:42.708Z,69.44
2017-07-02T12:25:11.357Z,70.36
2017-07-02T12:27:39.683Z,71.05
2017-07-02T12:30:08.789Z,71.66
2017-07-02T12:32:37.621Z,71.73
2017-07-02T12:35:05.958Z,71.47
2017-07-02T12:37:35.066Z,71.13
2017-07-02T12:40:03.689Z,71.47
2017-07-02T12:42:32.027Z,69.85
2017-07-02T12:45:00.375Z,69.46
2017-07-02T12:47:29.304Z,68.39
2017-07-02T12:49:57.631Z,69.44
2017-07-02T12:52:25.981Z,69.20
2017-07-02T12:54:54.915Z,68.94
2017-07-02T12:57:23.253Z,68.85
2017-07-02T12:59:51.579Z,68.69
2017-07-02T13:02:20.273Z,63.84
2017-07-02T13:04:48.629Z,64.00
2017-07-02T13:07:16.997Z,61.66
2017-07-02T13:09:45.641Z,59.89
2017-07-02T13:12:13.990Z,59.55
2017-07-02T13:14:43.153Z,57.21
2017-07-02T13:17:12.110Z,55.43
2017-07-02T13:19:40.438Z,55.42
2017-07-02T13:22:08.756Z,56.66
2017-07-02T13:24:37.376Z,57.24
2017-07-02T13:27:05.749Z,56.37
2017-07-02T13:29:34.068Z,56.42
2017-07-02T13:32:02.769Z,55.24
2017-07-02T13:34:31.100Z,55.02
2017-07-02T13:36:59.449Z,56.44
2017-07-02T13:39:28.299Z,55.99
2017-07-02T13:41:56.704Z,54.80
2017-07-02T13:44:25.083Z,55.29
2017-07-02T13:46:53.878Z,55.19
2017-07-02T13:49:22.221Z,54.38
2017-07-02T13:51:50.568Z,54.18
2017-07-02T13:54:19.199Z,53.36
2017-07-02T13:56:47.544Z,55.51
2017-07-02T13:59:15.910Z,54.87
2017-07-02T14:01:44.979Z,54.22
2017-07-02T14:04:13.941Z,53.35
2017-07-02T14:06:42.300Z,53.14
2017-07-02T14:09:11.047Z,54.76
2017-07-02T14:11:40.202Z,54.63
2017-07-02T14:14:08.549Z,55.05
2017-07-02T14:16:37.170Z,54.38
2017-07-02T14:19:06.283Z,52.34
2017-07-02T14:21:35.373Z,51.62
2017-07-02T14:24:04.986Z,52.49
2017-07-02T14:26:33.347Z,52.66
2017-07-02T14:29:01.680Z,52.18
2017-07-02T14:31:30.427Z,51.81
2017-07-02T14:33:58.770Z,50.86
2017-07-02T14:36:27.112Z,51.38
2017-07-02T14:38:55.856Z,51.70
2017-07-02T14:41:24.198Z,51.97
2017-07-02T14:43:52.560Z,51.36
2017-07-02T14:46:21.957Z,49.89
2017-07-02T14:48:50.304Z,48.57
2017-07-02T14:51:19.391Z,49.64
2017-07-02T14:53:48.054Z,50.47
2017-07-02T14:56:16.401Z,49.48
2017-07-02T14:58:44.724Z,48.90
2017-07-02T15:01:13.346Z,50.46
2017-07-02T15:03:41.699Z,49.19
2017-07-02T15:06:10.295Z,49.64
2017-07-02T15:08:39.551Z,49.69
2017-07-02T15:11:07.891Z,49.37
2017-07-02T15:13:36.217Z,48.85
2017-07-02T15:16:04.952Z,48.27
2017-07-02T15:18:33.285Z,47.66
2017-07-02T15:21:01.637Z,48.03
2017-07-02T15:23:30.370Z,47.10
2017-07-02T15:25:58.768Z,47.59
2017-07-02T15:28:27.863Z,49.11
2017-07-02T15:30:56.561Z,49.76
2017-07-02T15:33:24.933Z,49.97
2017-07-02T15:35:53.337Z,49.87
2017-07-02T15:38:22.201Z,48.67
2017-07-02T15:40:50.514Z,48.25
2017-07-02T15:43:18.861Z,48.49
2017-07-02T15:45:47.520Z,48.08
2017-07-02T15:48:15.873Z,47.05
2017-07-02T15:50:44.247Z,47.51
2017-07-02T15:53:13.328Z,47.16
2017-07-02T15:55:41.679Z,48.14
2017-07-02T15:58:10.043Z,48.12
2017-07-02T16:00:39.491Z,48.19
2017-07-02T16:03:07.819Z,49.55
2017-07-02T16:05:36.169Z,49.41
2017-07-02T16:08:05.127Z,49.55
2017-07-02T16:10:33.473Z,49.02
2017-07-02T16:13:01.822Z,47.96
2017-07-02T16:15:30.606Z,46.23
2017-07-02T16:17:58.929Z,45.32
2017-07-02T16:20:28.039Z,45.99
2017-07-02T16:22:56.667Z,45.68
2017-07-02T16:25:25.023Z,44.93
2017-07-02T16:27:53.400Z,44.80
2017-07-02T16:30:22.255Z,44.52
2017-07-02T16:32:50.604Z,44.50
2017-07-02T16:35:18.930Z,44.34
2017-07-02T16:37:48.025Z,43.91
2017-07-02T16:40:16.360Z,43.87
2017-07-02T16:42:44.685Z,44.58
2017-07-02T16:45:13.561Z,44.52
2017-07-02T16:47:41.889Z,44.40
2017-07-02T16:50:10.244Z,43.78
2017-07-02T16:52:38.887Z,42.96
2017-07-02T16:55:07.248Z,42.40
2017-07-02T16:57:35.573Z,42.47
2017-07-02T17:00:05.299Z,42.90
2017-07-02T17:02:33.625Z,43.59
2017-07-02T17:05:01.960Z,43.67
2017-07-02T17:07:30.575Z,44.45
2017-07-02T17:09:58.900Z,44.25
2017-07-02T17:12:27.236Z,44.51
2017-07-02T17:14:55.871Z,43.76
2017-07-02T17:17:24.188Z,43.25
2017-07-02T17:19:52.515Z,43.57
2017-07-02T17:22:21.619Z,42.80
2017-07-02T17:24:49.985Z,43.29
2017-07-02T17:27:19.102Z,43.51
2017-07-02T17:29:47.785Z,44.30
2017-07-02T17:32:16.130Z,44.68
2017-07-02T17:34:44.456Z,44.47
2017-07-02T17:37:13.308Z,44.00
2017-07-02T17:39:41.653Z,44.11
2017-07-02T17:42:10.020Z,43.14
2017-07-02T17:44:38.824Z,43.63
2017-07-02T17:47:07.155Z,44.34
2017-07-02T17:49:35.504Z,43.40
2017-07-02T17:52:04.442Z,43.97
2017-07-02T17:54:32.789Z,44.18
2017-07-02T17:57:01.123Z,45.68
2017-07-02T17:59:29.745Z,46.09
2017-07-02T18:01:58.857Z,46.53
2017-07-02T18:04:27.207Z,46.54
2017-07-02T18:06:55.975Z,46.88
2017-07-02T18:09:24.349Z,47.31
2017-07-02T18:11:52.771Z,48.33
2017-07-02T18:14:21.418Z,48.35
2017-07-02T18:16:49.907Z,48.83
2017-07-02T18:19:18.317Z,49.14
2017-07-02T18:21:46.942Z,48.88
2017-07-02T18:24:15.283Z,49.40
2017-07-02T18:26:43.655Z,49.79
2017-07-02T18:29:13.250Z,50.24
2017-07-02T18:31:41.612Z,50.60
2017-07-02T18:34:09.965Z,50.49
2017-07-02T18:36:38.614Z,50.57
2017-07-02T18:39:07.715Z,50.22
2017-07-02T18:41:36.087Z,50.74
2017-07-02T18:44:04.751Z,51.26
2017-07-02T18:46:33.108Z,51.31
2017-07-02T18:49:01.455Z,51.65
2017-07-02T18:51:30.434Z,52.28
2017-07-02T18:53:58.765Z,52.37
2017-07-02T18:56:27.115Z,52.73
2017-07-02T18:58:55.876Z,52.80
2017-07-02T19:01:24.197Z,53.11
2017-07-02T19:03:52.551Z,53.47
2017-07-02T19:06:21.340Z,54.11
2017-07-02T19:08:49.697Z,53.72
2017-07-02T19:11:18.798Z,54.54
2017-07-02T19:13:47.804Z,54.47
2017-07-02T19:16:16.140Z,55.25
2017-07-02T19:18:44.484Z,55.00
2017-07-02T19:21:13.139Z,55.48
2017-07-02T19:23:41.469Z,55.43
2017-07-02T19:26:09.816Z,55.19
2017-07-02T19:28:38.686Z,55.08
2017-07-02T19:31:07.104Z,55.66
2017-07-02T19:33:35.478Z,55.84
2017-07-02T19:36:04.217Z,55.87
2017-07-02T19:38:33.322Z,56.43
2017-07-02T19:41:02.426Z,56.89
2017-07-02T19:43:31.210Z,57.77
2017-07-02T19:45:59.543Z,58.00
2017-07-02T19:48:27.886Z,57.98
2017-07-02T19:50:56.539Z,58.16
2017-07-02T19:53:25.639Z,58.57
2017-07-02T19:55:53.995Z,58.52
2017-07-02T19:58:22.770Z,58.66
2017-07-02T20:00:51.117Z,58.86
2017-07-02T20:03:19.457Z,58.92
2017-07-02T20:05:48.371Z,58.98
2017-07-02T20:08:16.698Z,59.42
2017-07-02T20:10:45.032Z,58.92
2017-07-02T20:13:14.088Z,58.45
2017-07-02T20:15:42.416Z,58.90
2017-07-02T20:18:10.749Z,58.97
2017-07-02T20:20:39.727Z,58.76
2017-07-02T20:23:08.048Z,59.46
2017-07-02T20:25:36.375Z,59.17
2017-07-02T20:28:04.989Z,58.94
2017-07-02T20:30:34.114Z,59.26
2017-07-02T20:33:02.465Z,59.14
2017-07-02T20:35:31.101Z,59.20
2017-07-02T20:37:59.451Z,59.36
2017-07-02T20:40:27.793Z,59.47
2017-07-02T20:42:57.030Z,59.21
2017-07-02T20:45:25.361Z,59.50
2017-07-02T20:47:53.685Z,59.33
2017-07-02T20:50:22.463Z,59.55
2017-07-02T20:52:50.817Z,60.08
2017-07-02T20:55:19.162Z,59.49
2017-07-02T20:57:47.765Z,59.40
2017-07-02T21:00:16.101Z,59.80
2017-07-02T21:02:44.431Z,59.83
2017-07-02T21:05:13.225Z,59.36
2017-07-02T21:07:42.396Z,59.56
2017-07-02T21:10:10.739Z,59.86
2017-07-02T21:12:39.363Z,60.03
2017-07-02T21:15:07.703Z,60.31
2017-07-02T21:17:36.027Z,60.37
2017-07-02T21:20:04.687Z,60.74
2017-07-02T21:22:33.014Z,60.56
2017-07-02T21:25:01.351Z,60.99
2017-07-02T21:27:30.497Z,61.77
2017-07-02T21:29:58.838Z,62.03
2017-07-02T21:32:27.170Z,61.96
2017-07-02T21:34:55.811Z,62.29
2017-07-02T21:37:24.179Z,62.77
2017-07-02T21:39:52.521Z,62.99
2017-07-02T21:42:21.170Z,63.37
2017-07-02T21:44:49.509Z,63.53
2017-07-02T21:47:17.852Z,63.80
2017-07-02T21:49:46.652Z,63.89
2017-07-02T21:52:15.003Z,63.57
2017-07-02T21:54:44.118Z,63.98
2017-07-02T21:57:12.741Z,63.99
2017-07-02T21:59:41.091Z,64.69
2017-07-02T22:02:09.434Z,64.57
2017-07-02T22:04:38.351Z,65.25
2017-07-02T22:07:06.743Z,65.24
2017-07-02T22:09:35.087Z,65.18
2017-07-02T22:12:04.205Z,65.26
2017-07-02T22:14:32.548Z,66.64
2017-07-02T22:17:00.885Z,66.76
2017-07-02T22:19:29.557Z,66.91
2017-07-02T22:21:57.889Z,66.82
2017-07-02T22:24:26.240Z,67.04
2017-07-02T22:26:55.082Z,66.74
2017-07-02T22:29:23.423Z,66.91
2017-07-02T22:31:51.784Z,66.87
2017-07-02T22:34:20.527Z,66.94
2017-07-02T22:36:48.881Z,66.61
2017-07-02T22:39:17.218Z,66.46
2017-07-02T22:41:46.202Z,66.86
2017-07-02T22:44:14.558Z,67.21
2017-07-02T22:46:43.692Z,66.99
2017-07-02T22:49:12.355Z,66.90
2017-07-02T22:51:40.714Z,67.32
2017-07-02T22:54:09.046Z,68.26
2017-07-02T22:56:37.886Z,68.92
2017-07-02T22:59:06.231Z,68.89
2017-07-02T23:01:34.570Z,68.48
2017-07-02T23:04:03.355Z,68.24
2017-07-02T23:06:31.724Z,68.50
2017-07-02T23:09:00.043Z,68.95
2017-07-02T23:11:28.644Z,69.12
2017-07-02T23:13:57.014Z,68.69
2017-07-02T23:16:25.358Z,69.69
2017-07-02T23:18:54.418Z,69.65
2017-07-02T23:21:22.760Z,68.86
2017-07-02T23:23:51.097Z,70.06
2017-07-02T23:26:19.739Z,69.89
2017-07-02T23:28:48.082Z,69.74
2017-07-02T23:31:16.411Z,69.25
2017-07-02T23:33:45.119Z,68.94
2017-07-02T23:36:13.474Z,69.47
2017-07-02T23:38:41.801Z,70.01
2017-07-02T23:41:10.494Z,69.82
2017-07-02T23:43:38.826Z,70.04
2017-07-02T23:46:07.144Z,69.81
2017-07-02T23:48:36.011Z,69.47
2017-07-02T23:51:04.351Z,69.61
2017-07-02T23:53:32.686Z,69.92
2017-07-02T23:56:01.384Z,70.34
2017-07-02T23:58:29.740Z,69.74
